Time;durP1;ratioP1;P1;durP2;ratioP2;P2;SDS_P1;SDS_P2;PMS_P1;PMS_P2;Temp;Humidity;BMP_temperature;BMP_pressure;BME280_temperature;BME280_humidity;BME280_pressure;Samples;Min_cycle;Max_cycle;Signal;HPM_P1;HPM_P2
2021/04/04 00:01:32;;;;;;;0.70;0.70;;;4.80;98.50;;;;;;4887437;29;20190;-70
2021/04/04 00:03:58;;;;;;;0.60;0.60;;;4.80;98.50;;;;;;4888586;29;20295;-70
2021/04/04 00:06:23;;;;;;;0.90;0.90;;;4.80;98.50;;;;;;4886455;29;20319;-70
2021/04/04 00:08:49;;;;;;;0.80;0.80;;;4.80;98.50;;;;;;4886819;29;20181;-70
2021/04/04 00:11:15;;;;;;;0.93;0.90;;;4.70;98.50;;;;;;4887388;29;20252;-70
2021/04/04 00:13:42;;;;;;;0.80;0.70;;;4.70;98.50;;;;;;4890537;29;20678;-71
2021/04/04 00:16:08;;;;;;;0.80;0.80;;;4.60;98.50;;;;;;4887341;29;20667;-71
2021/04/04 00:18:34;;;;;;;0.80;0.80;;;4.60;98.50;;;;;;4887771;29;20790;-71
2021/04/04 00:21:00;;;;;;;0.93;0.80;;;4.50;98.50;;;;;;4887544;29;20677;-71
2021/04/04 00:23:25;;;;;;;0.67;0.67;;;4.40;98.50;;;;;;4889130;29;20177;-70
2021/04/04 00:25:51;;;;;;;0.60;0.60;;;4.40;98.50;;;;;;4888998;29;20192;-70
2021/04/04 00:28:17;;;;;;;0.83;0.83;;;4.40;98.50;;;;;;4887798;29;20750;-69
2021/04/04 00:30:43;;;;;;;0.63;0.63;;;4.40;98.50;;;;;;4888247;29;20188;-69
2021/04/04 00:33:09;;;;;;;1.23;0.80;;;4.40;98.50;;;;;;4889719;29;20185;-70
2021/04/04 00:35:34;;;;;;;0.83;0.67;;;4.40;98.50;;;;;;4889313;29;20192;-69
2021/04/04 00:38:01;;;;;;;0.50;0.50;;;4.40;98.50;;;;;;4888372;29;20213;-71
2021/04/04 00:40:29;;;;;;;0.70;0.70;;;4.40;98.50;;;;;;4887571;29;20198;-69
2021/04/04 00:42:55;;;;;;;0.80;0.80;;;4.40;98.50;;;;;;4886246;29;20188;-71
2021/04/04 00:45:28;;;;;;;0.50;0.50;;;4.40;98.50;;;;;;4888515;29;20244;-70
2021/04/04 00:47:54;;;;;;;0.70;0.70;;;4.40;98.50;;;;;;4888549;29;20287;-70
2021/04/04 00:50:24;;;;;;;0.73;0.67;;;4.40;98.50;;;;;;4889948;29;20193;-70
2021/04/04 00:52:55;;;;;;;0.60;0.60;;;4.40;98.50;;;;;;4887305;29;20267;-70
2021/04/04 00:55:22;;;;;;;1.27;0.90;;;4.50;98.50;;;;;;4889237;29;20193;-71
2021/04/04 00:57:49;;;;;;;0.43;0.43;;;4.50;98.50;;;;;;4886486;29;20252;-70
2021/04/04 01:00:17;;;;;;;0.67;0.67;;;4.40;98.50;;;;;;4889060;29;20574;-71
2021/04/04 01:02:43;;;;;;;0.80;0.80;;;4.40;98.50;;;;;;4889167;29;20956;-70
2021/04/04 01:05:12;;;;;;;0.60;0.60;;;4.40;98.50;;;;;;4887905;29;20216;-71
2021/04/04 01:07:38;;;;;;;0.97;0.80;;;4.40;98.50;;;;;;4887281;29;20185;-70
2021/04/04 01:10:07;;;;;;;0.77;0.77;;;4.40;98.50;;;;;;4871927;29;20754;-70
2021/04/04 01:12:54;;;;;;;0.53;0.53;;;4.40;98.50;;;;;;4884476;29;20914;-70
2021/04/04 01:15:25;;;;;;;0.70;0.70;;;4.30;98.50;;;;;;4891136;29;20189;-70
2021/04/04 01:17:53;;;;;;;0.70;0.70;;;4.30;98.50;;;;;;4890333;29;20222;-70
2021/04/04 01:20:34;;;;;;;0.43;0.40;;;4.30;98.50;;;;;;4889810;29;20362;-70
2021/04/04 01:23:03;;;;;;;1.60;0.60;;;4.30;98.50;;;;;;4889185;29;20647;-70
2021/04/04 01:25:38;;;;;;;0.40;0.40;;;4.30;98.50;;;;;;4889691;29;20887;-71
2021/04/04 01:28:11;;;;;;;0.60;0.57;;;4.30;98.50;;;;;;4890854;29;20189;-70
2021/04/04 01:30:39;;;;;;;0.73;0.73;;;4.30;98.50;;;;;;4889041;29;20189;-70
2021/04/04 01:33:08;;;;;;;0.43;0.43;;;4.30;98.50;;;;;;4889831;29;20181;-70
2021/04/04 01:35:36;;;;;;;0.50;0.50;;;4.30;98.50;;;;;;4886663;29;20176;-70
2021/04/04 01:38:13;;;;;;;1.13;0.80;;;4.20;98.50;;;;;;4888956;29;20209;-70
2021/04/04 01:40:42;;;;;;;1.03;0.77;;;4.30;98.50;;;;;;4888205;29;20192;-70
2021/04/04 01:43:09;;;;;;;0.97;0.97;;;4.30;98.50;;;;;;4886353;29;20252;-70
2021/04/04 01:45:36;;;;;;;0.80;0.80;;;4.20;98.50;;;;;;4888381;29;20192;-70
2021/04/04 01:48:03;;;;;;;1.13;0.80;;;4.20;98.50;;;;;;4890549;29;20202;-70
2021/04/04 01:50:30;;;;;;;0.50;0.50;;;4.20;98.50;;;;;;4888596;29;20290;-70
2021/04/04 01:52:58;;;;;;;0.90;0.90;;;4.20;98.50;;;;;;4890709;29;20201;-70
2021/04/04 01:55:24;;;;;;;0.70;0.70;;;4.20;98.50;;;;;;4891367;29;20587;-70
2021/04/04 01:57:51;;;;;;;0.80;0.80;;;4.20;98.50;;;;;;4888845;29;20212;-70
2021/04/04 02:00:20;;;;;;;0.70;0.70;;;4.20;98.50;;;;;;4889329;29;20652;-70
2021/04/04 02:02:46;;;;;;;0.87;0.73;;;4.20;98.50;;;;;;4892962;29;20600;-70
2021/04/04 02:05:13;;;;;;;0.60;0.60;;;4.30;98.50;;;;;;4887930;29;20182;-70
2021/04/04 02:07:42;;;;;;;1.00;1.00;;;4.30;98.50;;;;;;4885351;29;20204;-70
2021/04/04 02:10:13;;;;;;;0.70;0.70;;;4.30;98.50;;;;;;4887429;29;20181;-70
2021/04/04 02:12:41;;;;;;;0.53;0.53;;;4.30;98.50;;;;;;4887025;29;20193;-70
2021/04/04 02:15:09;;;;;;;1.07;0.97;;;4.20;98.50;;;;;;4888247;29;20197;-70
2021/04/04 02:17:36;;;;;;;0.80;0.80;;;4.20;98.50;;;;;;4887200;29;20257;-70
2021/04/04 02:20:06;;;;;;;0.83;0.83;;;4.20;98.50;;;;;;4888507;29;20190;-70
2021/04/04 02:22:34;;;;;;;1.10;1.10;;;4.20;98.50;;;;;;4890287;29;20192;-70
2021/04/04 02:25:01;;;;;;;0.87;0.87;;;4.10;98.50;;;;;;4885951;29;20182;-70
2021/04/04 02:27:27;;;;;;;2.07;1.00;;;4.20;98.50;;;;;;4892797;29;20197;-71
2021/04/04 02:29:52;;;;;;;1.30;1.30;;;4.10;98.50;;;;;;4872488;29;20196;-70
2021/04/04 02:32:20;;;;;;;1.07;0.97;;;4.10;98.50;;;;;;4889116;29;20185;-70
2021/04/04 02:34:48;;;;;;;1.30;1.20;;;4.10;98.50;;;;;;4890040;29;20268;-70
2021/04/04 02:37:15;;;;;;;0.90;0.90;;;4.10;98.50;;;;;;4889968;29;20781;-70
2021/04/04 02:39:55;;;;;;;0.83;0.83;;;4.20;98.50;;;;;;4889892;29;20310;-70
2021/04/04 02:42:24;;;;;;;1.00;1.00;;;4.10;98.50;;;;;;4890525;29;20212;-70
2021/04/04 02:44:53;;;;;;;1.10;1.03;;;4.10;98.50;;;;;;4889315;29;20199;-70
2021/04/04 02:47:24;;;;;;;1.57;1.57;;;4.10;98.50;;;;;;4888028;29;20212;-70
2021/04/04 02:49:52;;;;;;;3.20;1.50;;;4.10;98.50;;;;;;4888325;29;20235;-69
2021/04/04 02:52:20;;;;;;;0.90;0.90;;;4.00;98.50;;;;;;4891582;29;20196;-70
2021/04/04 02:54:51;;;;;;;1.00;1.00;;;4.00;98.50;;;;;;4890294;29;20222;-70
2021/04/04 02:57:19;;;;;;;1.80;1.80;;;4.10;98.50;;;;;;4888868;29;20221;-70
2021/04/04 02:59:49;;;;;;;1.37;1.27;;;4.10;98.50;;;;;;4891022;29;20185;-70
2021/04/04 03:02:18;;;;;;;1.97;1.87;;;4.00;98.50;;;;;;4890953;29;20180;-70
2021/04/04 03:04:49;;;;;;;1.73;1.73;;;4.00;98.50;;;;;;4888951;29;20181;-70
2021/04/04 03:07:18;;;;;;;1.70;1.60;;;4.00;98.50;;;;;;4890753;29;20610;-70
2021/04/04 03:09:47;;;;;;;1.80;1.70;;;4.00;98.50;;;;;;4889711;29;20181;-70
2021/04/04 03:12:15;;;;;;;1.83;1.40;;;4.10;98.50;;;;;;4890264;29;20264;-69
2021/04/04 03:14:41;;;;;;;2.00;1.33;;;4.10;98.50;;;;;;4890760;29;20220;-69
2021/04/04 03:17:10;;;;;;;1.73;1.63;;;4.10;98.50;;;;;;4889114;29;20217;-70
2021/04/04 03:19:40;;;;;;;2.13;2.03;;;4.10;98.50;;;;;;4890092;29;20188;-69
2021/04/04 03:22:07;;;;;;;2.10;2.00;;;4.10;98.50;;;;;;4888538;29;20182;-68
2021/04/04 03:24:34;;;;;;;2.53;2.43;;;4.20;98.50;;;;;;4887500;29;20181;-68
2021/04/04 03:27:01;;;;;;;2.23;2.13;;;4.20;98.50;;;;;;4886499;29;20189;-68
2021/04/04 03:29:27;;;;;;;2.23;2.03;;;4.20;98.50;;;;;;4890432;29;21306;-69
2021/04/04 03:31:54;;;;;;;2.03;1.93;;;4.20;98.50;;;;;;4890680;29;20261;-70
2021/04/04 03:34:20;;;;;;;2.13;1.93;;;4.30;98.50;;;;;;4889644;29;20265;-69
2021/04/04 03:36:47;;;;;;;2.07;1.87;;;4.30;98.50;;;;;;4889294;29;20208;-68
2021/04/04 03:39:13;;;;;;;2.70;2.50;;;4.20;98.50;;;;;;4887561;29;20693;-69
2021/04/04 03:41:40;;;;;;;3.40;2.53;;;4.20;98.50;;;;;;4887327;29;20226;-69
2021/04/04 03:44:08;;;;;;;4.43;2.33;;;4.20;98.50;;;;;;4886250;29;20211;-69
2021/04/04 03:46:35;;;;;;;2.03;1.93;;;4.20;98.50;;;;;;4888707;29;20986;-70
2021/04/04 03:49:02;;;;;;;3.77;2.87;;;4.20;98.50;;;;;;4887335;29;20547;-69
2021/04/04 03:51:29;;;;;;;2.83;2.53;;;4.20;98.50;;;;;;4889019;29;20181;-70
2021/04/04 03:53:57;;;;;;;2.87;2.60;;;4.20;98.50;;;;;;4888944;29;20670;-70
2021/04/04 03:56:26;;;;;;;2.80;2.60;;;4.20;98.50;;;;;;4890192;29;20765;-70
2021/04/04 03:58:54;;;;;;;2.87;2.53;;;4.20;98.50;;;;;;4888238;29;20188;-69
2021/04/04 04:01:23;;;;;;;3.70;2.97;;;4.20;98.50;;;;;;4881311;29;20568;-69
2021/04/04 04:03:49;;;;;;;3.97;2.97;;;4.30;98.50;;;;;;4886997;29;20240;-70
2021/04/04 04:06:16;;;;;;;3.80;2.70;;;4.30;98.50;;;;;;4885855;29;20184;-70
2021/04/04 04:08:42;;;;;;;2.37;2.17;;;4.20;98.50;;;;;;4889509;29;20190;-69
2021/04/04 04:11:10;;;;;;;3.87;3.07;;;4.30;98.50;;;;;;4888233;29;20200;-69
2021/04/04 04:13:37;;;;;;;6.07;2.63;;;4.30;98.50;;;;;;4886031;29;20184;-69
2021/04/04 04:16:04;;;;;;;3.17;2.70;;;4.40;98.40;;;;;;4888646;29;20903;-69
2021/04/04 04:18:30;;;;;;;2.87;2.63;;;4.40;98.30;;;;;;4887309;29;20191;-70
2021/04/04 04:20:56;;;;;;;3.13;2.77;;;4.40;98.00;;;;;;4886809;29;20193;-70
2021/04/04 04:23:23;;;;;;;3.53;3.33;;;4.30;97.70;;;;;;4889074;29;20671;-70
2021/04/04 04:25:50;;;;;;;2.50;2.33;;;4.30;97.70;;;;;;4886720;29;20189;-69
2021/04/04 04:28:18;;;;;;;3.40;2.87;;;4.40;97.80;;;;;;4869445;29;20529;-70
2021/04/04 04:30:44;;;;;;;3.33;2.60;;;4.30;97.80;;;;;;4888054;29;20193;-69
2021/04/04 04:33:16;;;;;;;3.50;3.03;;;4.30;98.00;;;;;;4881588;29;20181;-69
2021/04/04 04:35:44;;;;;;;2.70;2.60;;;4.30;98.10;;;;;;4889810;29;20181;-69
2021/04/04 04:38:10;;;;;;;3.20;2.87;;;4.30;98.00;;;;;;4889444;29;20245;-69
2021/04/04 04:40:36;;;;;;;6.37;2.53;;;4.40;97.90;;;;;;4883978;29;20799;-69
2021/04/04 04:43:05;;;;;;;4.80;2.93;;;4.30;97.70;;;;;;4879386;29;20268;-69
2021/04/04 04:45:37;;;;;;;2.93;2.53;;;4.40;97.60;;;;;;4879029;29;20186;-69
2021/04/04 04:48:03;;;;;;;2.73;2.53;;;4.40;97.60;;;;;;4880245;29;20669;-69
2021/04/04 04:50:30;;;;;;;5.47;3.03;;;4.40;97.60;;;;;;4889509;29;20276;-69
2021/04/04 04:52:58;;;;;;;4.23;2.90;;;4.40;97.30;;;;;;4888568;29;20263;-69
2021/04/04 04:55:24;;;;;;;3.33;3.03;;;4.40;97.40;;;;;;4886262;29;20192;-70
2021/04/04 04:57:50;;;;;;;3.20;3.00;;;4.40;97.40;;;;;;4887250;29;20216;-70
2021/04/04 05:00:17;;;;;;;3.33;3.00;;;4.40;97.30;;;;;;4888991;29;20192;-69
2021/04/04 05:02:44;;;;;;;2.83;2.63;;;4.30;97.40;;;;;;4883978;29;20259;-69
2021/04/04 05:05:12;;;;;;;3.30;3.00;;;4.40;97.40;;;;;;4881279;29;20245;-69
2021/04/04 05:07:39;;;;;;;3.47;3.23;;;4.40;97.50;;;;;;4880078;29;20204;-70
2021/04/04 05:10:09;;;;;;;4.13;2.97;;;4.40;97.40;;;;;;4883251;29;20190;-69
2021/04/04 05:12:43;;;;;;;4.23;3.83;;;4.30;97.40;;;;;;4882224;29;20192;-69
2021/04/04 05:15:10;;;;;;;3.50;3.20;;;4.40;97.40;;;;;;4880318;29;20204;-69
2021/04/04 05:17:37;;;;;;;4.63;3.33;;;4.40;97.50;;;;;;4885816;29;20244;-70
2021/04/04 05:20:08;;;;;;;3.30;3.00;;;4.40;97.40;;;;;;4888877;29;20181;-70
2021/04/04 05:22:35;;;;;;;3.03;2.83;;;4.40;97.10;;;;;;4885209;29;20236;-68
2021/04/04 05:25:02;;;;;;;4.07;2.67;;;4.40;97.00;;;;;;4888308;29;20173;-69
2021/04/04 05:27:28;;;;;;;5.67;2.87;;;4.40;97.10;;;;;;4885971;29;20189;-71
2021/04/04 05:29:58;;;;;;;5.03;3.17;;;4.30;97.30;;;;;;4885777;29;20553;-69
2021/04/04 05:32:24;;;;;;;2.77;2.57;;;4.30;97.30;;;;;;4883052;29;20197;-69
2021/04/04 05:34:50;;;;;;;3.00;2.80;;;4.40;97.30;;;;;;4887427;29;20189;-69
2021/04/04 05:37:15;;;;;;;2.97;2.70;;;4.40;97.40;;;;;;4887370;29;20229;-70
2021/04/04 05:39:41;;;;;;;3.77;3.40;;;4.40;97.50;;;;;;4888997;29;20185;-70
2021/04/04 05:42:09;;;;;;;6.30;3.50;;;4.40;97.50;;;;;;4882925;29;20190;-70
2021/04/04 05:44:34;;;;;;;3.73;3.43;;;4.40;97.60;;;;;;4885873;29;20678;-69
2021/04/04 05:47:08;;;;;;;2.77;2.60;;;4.50;97.50;;;;;;4886128;29;20227;-70
2021/04/04 05:50:04;;;;;;;4.00;3.17;;;4.50;97.40;;;;;;4888043;29;20187;-69
2021/04/04 05:52:39;;;;;;;2.73;2.50;;;4.40;96.70;;;;;;4882351;29;20194;-70
2021/04/04 05:55:32;;;;;;;3.00;2.77;;;4.40;96.70;;;;;;4886922;29;20252;-69
2021/04/04 05:58:11;;;;;;;5.47;3.07;;;4.30;96.90;;;;;;4883401;29;20322;-70
2021/04/04 06:00:44;;;;;;;2.97;2.77;;;4.30;97.30;;;;;;4889492;29;20189;-69
2021/04/04 06:03:15;;;;;;;3.33;3.07;;;4.30;97.30;;;;;;4888949;29;20308;-69
2021/04/04 06:05:43;;;;;;;3.07;2.87;;;4.30;97.30;;;;;;4879737;29;20188;-69
2021/04/04 06:08:47;;;;;;;4.33;3.27;;;4.30;97.00;;;;;;4886958;29;20554;-70
2021/04/04 06:11:34;;;;;;;3.20;3.00;;;4.40;96.90;;;;;;4888768;29;20668;-70
2021/04/04 06:14:20;;;;;;;3.13;2.83;;;4.30;96.90;;;;;;4886301;29;20193;-70
2021/04/04 06:16:55;;;;;;;3.80;3.40;;;4.40;97.10;;;;;;4892628;29;20201;-70
2021/04/04 06:20:01;;;;;;;3.40;3.10;;;4.40;97.10;;;;;;4886909;29;20189;-70
2021/04/04 06:22:40;;;;;;;3.03;2.87;;;4.50;97.10;;;;;;4829618;29;20212;-71
2021/04/04 06:25:17;;;;;;;3.57;3.23;;;4.50;97.00;;;;;;4832810;29;20203;-71
2021/04/04 06:27:43;;;;;;;3.17;2.93;;;4.60;97.20;;;;;;4833226;29;20218;-70
2021/04/04 06:33:23;;;;;;;3.13;2.47;;;4.60;96.90;;;;;;4833374;29;20225;-71
2021/04/04 06:36:08;;;;;;;4.17;3.60;;;4.60;96.60;;;;;;4832330;29;20194;-70
2021/04/04 06:38:37;;;;;;;4.17;3.77;;;4.60;96.50;;;;;;4831511;29;20737;-69
2021/04/04 06:41:19;;;;;;;4.60;3.37;;;4.60;96.50;;;;;;4832943;29;20221;-69
2021/04/04 06:44:04;;;;;;;3.67;3.20;;;4.60;96.30;;;;;;4830453;29;20286;-69
2021/04/04 06:46:58;;;;;;;3.80;3.43;;;4.60;96.30;;;;;;4832346;29;20214;-68
2021/04/04 06:50:00;;;;;;;5.57;3.70;;;4.60;96.40;;;;;;4832861;29;20203;-69
2021/04/04 06:52:44;;;;;;;3.77;3.30;;;4.70;96.10;;;;;;4831911;29;20246;-70
2021/04/04 06:55:38;;;;;;;3.03;2.77;;;4.70;96.20;;;;;;4831720;29;20191;-69
2021/04/04 06:58:15;;;;;;;4.73;4.13;;;4.70;95.90;;;;;;4832277;29;20218;-69
2021/04/04 07:01:06;;;;;;;4.57;4.17;;;4.70;96.60;;;;;;4881949;29;20590;-69
2021/04/04 07:03:44;;;;;;;4.47;3.93;;;4.60;96.50;;;;;;4890766;29;20185;-69
2021/04/04 07:06:15;;;;;;;5.50;4.33;;;4.70;96.90;;;;;;4884071;29;20197;-68
2021/04/04 07:08:46;;;;;;;4.00;3.60;;;4.70;97.20;;;;;;4888005;29;20244;-71
2021/04/04 07:11:38;;;;;;;4.07;3.70;;;4.80;97.50;;;;;;4888863;29;20272;-69
2021/04/04 07:14:41;;;;;;;3.80;3.40;;;4.80;97.40;;;;;;4890836;29;20181;-69
2021/04/04 07:17:36;;;;;;;3.33;3.07;;;4.80;96.50;;;;;;4886769;29;20255;-68
2021/04/04 07:20:26;;;;;;;5.33;3.90;;;4.90;96.30;;;;;;4887054;29;20267;-69
2021/04/04 07:23:34;;;;;;;3.23;2.97;;;5.00;96.50;;;;;;4886966;29;20185;-70
2021/04/04 07:26:37;;;;;;;4.13;3.23;;;5.10;96.20;;;;;;4889963;29;20209;-68
2021/04/04 07:29:39;;;;;;;3.93;3.60;;;5.10;95.80;;;;;;4888110;29;20192;-68
2021/04/04 07:32:12;;;;;;;6.73;4.00;;;5.20;95.70;;;;;;4887653;29;20197;-69
2021/04/04 07:35:09;;;;;;;5.67;3.80;;;5.20;95.20;;;;;;4889055;29;20614;-69
2021/04/04 07:38:27;;;;;;;3.97;3.67;;;5.20;94.70;;;;;;4885079;29;20216;-69
2021/04/04 07:40:58;;;;;;;3.70;3.40;;;5.40;95.20;;;;;;4838197;29;20225;-68
2021/04/04 07:43:57;;;;;;;3.77;3.40;;;5.40;94.70;;;;;;4845661;29;20278;-68
2021/04/04 07:46:31;;;;;;;5.33;3.50;;;5.40;94.20;;;;;;4769329;30;20197;-69
2021/04/04 07:49:14;;;;;;;4.60;4.23;;;5.40;94.20;;;;;;4771471;30;20197;-68
2021/04/04 07:51:46;;;;;;;5.33;3.80;;;5.30;94.50;;;;;;4774002;29;20212;-67
2021/04/04 07:54:40;;;;;;;3.80;3.43;;;5.30;94.50;;;;;;4768539;30;20644;-68
2021/04/04 07:57:46;;;;;;;3.40;3.10;;;5.30;94.70;;;;;;4775048;30;20390;-70
2021/04/04 08:00:14;;;;;;;3.00;2.80;;;5.20;93.80;;;;;;4731175;30;20277;-70
2021/04/04 08:03:05;;;;;;;3.20;3.00;;;5.20;92.40;;;;;;4733344;30;20267;-69
2021/04/04 08:05:36;;;;;;;3.67;3.40;;;5.20;92.60;;;;;;4736690;30;20210;-68
2021/04/04 08:08:08;;;;;;;4.87;4.13;;;5.30;93.40;;;;;;4736117;30;20205;-68
2021/04/04 08:10:36;;;;;;;3.93;3.60;;;5.40;93.80;;;;;;4736088;30;20693;-68
2021/04/04 08:13:20;;;;;;;4.03;2.83;;;5.50;93.70;;;;;;4755619;30;20198;-68
2021/04/04 08:16:07;;;;;;;3.97;3.33;;;5.50;93.40;;;;;;4758575;30;20255;-68
2021/04/04 08:18:34;;;;;;;5.40;4.03;;;5.60;93.40;;;;;;4757978;30;20228;-69
2021/04/04 08:21:08;;;;;;;4.67;4.27;;;5.70;93.00;;;;;;4759903;30;20347;-68
2021/04/04 08:23:53;;;;;;;10.80;4.30;;;5.70;92.70;;;;;;4797878;29;20353;-68
2021/04/04 08:26:25;;;;;;;4.43;4.03;;;5.80;93.10;;;;;;4805537;29;20204;-68
2021/04/04 08:29:07;;;;;;;6.13;3.27;;;5.90;92.80;;;;;;4807388;29;20184;-68
2021/04/04 08:31:39;;;;;;;5.83;4.07;;;6.00;92.40;;;;;;4811472;29;20482;-69
2021/04/04 08:34:22;;;;;;;6.50;3.63;;;6.10;92.00;;;;;;4805899;29;20589;-69
2021/04/04 08:36:53;;;;;;;3.50;3.20;;;6.20;91.10;;;;;;4847180;29;20216;-68
2021/04/04 08:39:22;;;;;;;4.17;3.73;;;6.10;90.50;;;;;;4888377;29;20203;-69
2021/04/04 08:41:48;;;;;;;3.63;3.23;;;6.20;91.40;;;;;;4887835;29;20177;-69
2021/04/04 08:44:23;;;;;;;3.80;3.40;;;6.20;90.20;;;;;;4890560;29;20189;-69
2021/04/04 08:47:27;;;;;;;4.90;3.13;;;6.20;89.50;;;;;;4886785;29;20219;-69
2021/04/04 08:49:55;;;;;;;4.33;3.90;;;6.10;89.30;;;;;;4886224;29;20239;-68
2021/04/04 08:52:29;;;;;;;3.40;3.10;;;6.20;90.00;;;;;;4888420;29;20292;-68
2021/04/04 08:54:55;;;;;;;4.40;3.73;;;6.20;89.60;;;;;;4879841;29;20198;-69
2021/04/04 08:57:38;;;;;;;4.50;4.10;;;6.30;89.60;;;;;;4887000;29;20240;-69
2021/04/04 09:00:07;;;;;;;7.20;4.07;;;6.30;89.90;;;;;;4888239;29;20776;-70
2021/04/04 09:02:39;;;;;;;4.87;4.13;;;6.20;90.30;;;;;;4889182;29;20275;-69
2021/04/04 09:05:08;;;;;;;7.63;3.87;;;6.30;90.50;;;;;;4885590;29;21047;-70
2021/04/04 09:07:40;;;;;;;4.27;3.87;;;6.30;90.50;;;;;;4886199;29;20200;-70
2021/04/04 09:10:10;;;;;;;4.63;4.23;;;6.30;90.70;;;;;;4885119;29;20297;-71
2021/04/04 09:12:37;;;;;;;6.33;4.40;;;6.30;90.60;;;;;;4884177;29;20185;-70
2021/04/04 09:15:05;;;;;;;4.27;3.97;;;6.30;90.80;;;;;;4886163;29;20633;-70
2021/04/04 09:17:31;;;;;;;3.80;3.50;;;6.30;90.50;;;;;;4886623;29;20251;-70
2021/04/04 09:20:00;;;;;;;4.80;3.93;;;6.30;90.50;;;;;;4887765;29;20220;-70
2021/04/04 09:22:27;;;;;;;7.80;6.03;;;6.40;90.60;;;;;;4870622;29;20527;-70
2021/04/04 09:25:01;;;;;;;4.80;4.40;;;6.40;89.80;;;;;;4885044;29;20193;-69
2021/04/04 09:27:28;;;;;;;4.93;3.63;;;6.30;89.80;;;;;;4886291;29;20189;-70
2021/04/04 09:30:00;;;;;;;3.30;3.03;;;6.30;90.00;;;;;;4888294;29;20670;-70
2021/04/04 09:32:44;;;;;;;4.13;2.80;;;6.30;90.20;;;;;;4884086;29;20181;-70
2021/04/04 09:35:21;;;;;;;3.50;3.20;;;6.30;90.10;;;;;;4888890;29;20193;-70
2021/04/04 09:37:48;;;;;;;3.47;3.17;;;6.30;89.80;;;;;;4891312;29;20224;-70
2021/04/04 09:40:16;;;;;;;4.70;4.23;;;6.30;90.10;;;;;;4889320;29;20197;-71
2021/04/04 09:42:43;;;;;;;3.40;3.10;;;6.20;90.30;;;;;;4890077;29;20193;-71
2021/04/04 09:45:26;;;;;;;3.90;3.60;;;6.10;89.90;;;;;;4888625;29;20697;-70
2021/04/04 09:47:52;;;;;;;3.77;3.47;;;6.10;90.30;;;;;;4891626;29;20259;-70
2021/04/04 09:50:30;;;;;;;3.47;3.27;;;6.20;90.80;;;;;;4891967;29;20189;-70
2021/04/04 09:52:57;;;;;;;4.37;3.53;;;6.20;90.50;;;;;;4888193;29;20623;-71
2021/04/04 09:55:24;;;;;;;3.20;3.00;;;6.20;90.50;;;;;;4889044;29;20196;-71
2021/04/04 09:57:55;;;;;;;3.97;3.57;;;6.00;90.00;;;;;;4889697;29;20212;-70
2021/04/04 10:00:27;;;;;;;3.47;3.17;;;5.80;90.20;;;;;;4885161;29;20322;-70
2021/04/04 10:02:56;;;;;;;4.73;3.70;;;5.70;91.40;;;;;;4890677;29;20189;-70
2021/04/04 10:05:26;;;;;;;5.57;4.00;;;5.70;91.60;;;;;;4889337;29;20383;-70
2021/04/04 10:07:52;;;;;;;5.60;4.47;;;5.60;92.00;;;;;;4887441;29;20196;-70
2021/04/04 10:10:29;;;;;;;6.70;3.20;;;5.50;92.30;;;;;;4889343;29;20218;-71
2021/04/04 10:12:57;;;;;;;3.20;3.00;;;5.50;92.30;;;;;;4883634;29;20229;-71
2021/04/04 10:15:23;;;;;;;3.90;3.53;;;5.50;92.30;;;;;;4886289;29;20574;-71
2021/04/04 10:17:53;;;;;;;4.33;3.97;;;5.50;92.20;;;;;;4889283;29;20309;-71
2021/04/04 10:20:52;;;;;;;5.00;3.27;;;5.50;92.80;;;;;;4891590;29;20193;-71
2021/04/04 10:23:20;;;;;;;3.90;3.50;;;5.60;92.70;;;;;;4818985;29;20371;-70
2021/04/04 10:26:06;;;;;;;6.43;5.93;;;5.60;92.20;;;;;;4817890;29;20493;-71
2021/04/04 10:28:55;;;;;;;6.03;5.50;;;5.70;91.30;;;;;;4820467;29;20517;-70
2021/04/04 10:31:23;;;;;;;3.70;3.33;;;5.70;91.50;;;;;;4821141;29;20274;-71
2021/04/04 10:34:01;;;;;;;5.93;3.37;;;5.60;92.00;;;;;;4820663;29;20204;-69
2021/04/04 10:36:28;;;;;;;4.50;2.97;;;5.50;92.50;;;;;;4824126;29;20194;-69
2021/04/04 10:38:55;;;;;;;4.00;2.93;;;5.60;93.10;;;;;;4820890;29;20197;-70
2021/04/04 10:41:32;;;;;;;3.67;3.40;;;5.70;93.00;;;;;;4823724;29;20562;-70
2021/04/04 10:43:58;;;;;;;4.73;3.43;;;5.70;92.30;;;;;;4820672;29;20248;-69
2021/04/04 10:46:35;;;;;;;5.10;3.67;;;5.70;92.20;;;;;;4821046;29;20276;-70
2021/04/04 10:49:02;;;;;;;3.87;3.67;;;5.70;91.60;;;;;;4823370;29;20686;-70
2021/04/04 10:51:30;;;;;;;3.70;3.40;;;5.60;92.40;;;;;;4820756;29;20228;-70
2021/04/04 10:53:59;;;;;;;4.17;3.57;;;5.60;92.60;;;;;;4819818;29;20363;-69
2021/04/04 10:56:25;;;;;;;4.90;4.17;;;5.60;92.70;;;;;;4825522;29;20696;-71
2021/04/04 10:58:51;;;;;;;4.47;3.27;;;5.60;92.90;;;;;;4825631;29;20195;-71
2021/04/04 11:01:17;;;;;;;4.73;3.30;;;5.50;92.80;;;;;;4879942;29;20217;-72
2021/04/04 11:03:44;;;;;;;4.03;3.47;;;5.50;93.30;;;;;;4885515;29;20667;-71
2021/04/04 11:06:11;;;;;;;3.63;2.73;;;5.50;93.20;;;;;;4888553;29;20249;-71
2021/04/04 11:08:40;;;;;;;2.27;2.07;;;5.20;92.60;;;;;;4890454;29;20276;-71
2021/04/04 11:11:06;;;;;;;2.33;2.13;;;5.10;92.70;;;;;;4889341;29;20228;-71
2021/04/04 11:13:34;;;;;;;2.70;2.50;;;4.90;93.30;;;;;;4887760;29;20204;-71
2021/04/04 11:16:06;;;;;;;2.77;2.67;;;4.70;93.80;;;;;;4890338;29;20746;-71
2021/04/04 11:18:43;;;;;;;3.47;2.13;;;4.70;94.40;;;;;;4889411;29;20217;-71
2021/04/04 11:21:50;;;;;;;2.70;2.60;;;4.60;94.90;;;;;;4890401;29;20850;-71
2021/04/04 11:24:19;;;;;;;3.90;2.70;;;4.70;95.30;;;;;;4814693;29;20711;-69
2021/04/04 11:26:54;;;;;;;4.40;3.10;;;4.60;95.20;;;;;;4815044;29;20698;-69
2021/04/04 11:29:23;;;;;;;3.37;2.53;;;4.60;95.40;;;;;;4813255;29;20195;-69
2021/04/04 11:31:53;;;;;;;5.33;2.77;;;4.60;95.70;;;;;;4814538;29;20191;-71
2021/04/04 11:34:38;;;;;;;5.67;2.90;;;4.60;95.90;;;;;;4813606;29;20208;-74
2021/04/04 11:37:10;;;;;;;3.27;2.87;;;4.60;96.00;;;;;;4812867;29;20211;-72
2021/04/04 11:39:36;;;;;;;3.73;3.43;;;4.70;96.60;;;;;;4814643;29;20345;-71
2021/04/04 11:42:03;;;;;;;3.23;3.03;;;4.80;96.50;;;;;;4813982;29;20702;-69
2021/04/04 11:44:31;;;;;;;2.87;2.17;;;4.80;95.70;;;;;;4814376;29;20242;-71
2021/04/04 11:47:02;;;;;;;3.37;2.73;;;4.80;94.60;;;;;;4812523;29;20203;-71
2021/04/04 11:49:31;;;;;;;2.70;2.50;;;4.80;94.70;;;;;;4814277;29;20250;-69
2021/04/04 11:52:09;;;;;;;2.60;2.40;;;4.70;94.40;;;;;;4814945;29;20204;-68
2021/04/04 11:54:49;;;;;;;3.27;2.37;;;4.80;94.90;;;;;;4813496;29;20196;-68
2021/04/04 11:57:26;;;;;;;2.97;2.60;;;4.80;94.90;;;;;;4812168;29;20264;-69
2021/04/04 11:59:53;;;;;;;2.87;2.40;;;4.80;94.90;;;;;;4849878;29;20205;-71
2021/04/04 12:02:21;;;;;;;2.53;2.33;;;4.80;95.00;;;;;;4888596;29;20204;-72
2021/04/04 12:05:07;;;;;;;3.00;2.80;;;4.70;95.10;;;;;;4886795;29;20233;-71
2021/04/04 12:07:41;;;;;;;3.50;3.20;;;4.70;94.90;;;;;;4887012;29;20666;-70
2021/04/04 12:10:08;;;;;;;4.83;3.27;;;4.70;95.30;;;;;;4887575;29;20192;-70
2021/04/04 12:12:35;;;;;;;3.33;3.00;;;4.70;95.40;;;;;;4889339;29;20622;-70
2021/04/04 12:15:02;;;;;;;2.60;2.40;;;4.70;95.50;;;;;;4870007;29;20208;-71
2021/04/04 12:17:30;;;;;;;2.47;2.33;;;4.80;95.40;;;;;;4890708;29;20212;-71
2021/04/04 12:19:57;;;;;;;3.67;3.00;;;4.80;95.10;;;;;;4888102;29;20193;-71
2021/04/04 12:22:43;;;;;;;1.67;1.57;;;4.80;94.50;;;;;;4886046;29;20212;-71
2021/04/04 12:25:17;;;;;;;3.13;2.33;;;4.80;94.30;;;;;;4886616;29;20264;-71
2021/04/04 12:27:44;;;;;;;2.57;2.47;;;4.80;94.40;;;;;;4887235;29;20360;-71
2021/04/04 12:30:21;;;;;;;1.90;1.80;;;4.80;94.80;;;;;;4886574;29;20632;-71
2021/04/04 12:32:47;;;;;;;3.33;2.77;;;4.80;94.80;;;;;;4886974;29;20184;-72
2021/04/04 12:35:22;;;;;;;2.60;2.37;;;4.90;94.60;;;;;;4889105;29;20177;-71
2021/04/04 12:37:48;;;;;;;3.87;3.53;;;4.90;94.60;;;;;;4886093;29;20230;-71
2021/04/04 12:40:13;;;;;;;4.47;3.40;;;4.80;94.90;;;;;;4886929;29;20217;-71
2021/04/04 12:42:59;;;;;;;4.17;3.80;;;4.80;94.70;;;;;;4888214;29;20217;-71
2021/04/04 12:45:30;;;;;;;4.20;3.83;;;4.80;94.80;;;;;;4888337;29;20252;-71
2021/04/04 12:47:56;;;;;;;5.00;4.60;;;4.90;95.00;;;;;;4887845;29;20582;-71
2021/04/04 12:50:22;;;;;;;3.20;3.00;;;4.90;95.00;;;;;;4887790;29;20188;-71
2021/04/04 12:52:53;;;;;;;4.40;3.63;;;4.90;94.90;;;;;;4886776;29;20188;-71
2021/04/04 12:55:24;;;;;;;4.57;3.97;;;4.80;95.00;;;;;;4887030;29;20275;-71
2021/04/04 12:58:03;;;;;;;4.37;3.77;;;4.80;95.00;;;;;;4887167;29;20220;-71
2021/04/04 13:00:32;;;;;;;4.23;3.83;;;4.80;94.90;;;;;;4887298;29;20189;-72
2021/04/04 13:03:10;;;;;;;4.27;3.87;;;4.80;95.20;;;;;;4888476;29;20625;-72
2021/04/04 13:05:49;;;;;;;4.37;3.83;;;4.70;95.70;;;;;;4889336;29;20272;-71
2021/04/04 13:08:24;;;;;;;6.77;4.50;;;4.60;95.80;;;;;;4886904;29;20674;-71
2021/04/04 13:10:52;;;;;;;5.83;4.33;;;4.60;95.90;;;;;;4891941;29;20187;-72
2021/04/04 13:13:26;;;;;;;6.90;4.27;;;4.50;96.10;;;;;;4891661;29;20199;-72
2021/04/04 13:15:56;;;;;;;4.83;4.33;;;4.50;96.60;;;;;;4888722;29;20267;-72
2021/04/04 13:18:32;;;;;;;3.87;3.57;;;4.50;96.50;;;;;;4891882;29;20738;-72
2021/04/04 13:21:04;;;;;;;4.40;3.80;;;4.60;96.50;;;;;;4891164;29;20275;-71
2021/04/04 13:23:42;;;;;;;4.10;3.40;;;4.50;96.60;;;;;;4890923;29;20181;-71
2021/04/04 13:26:12;;;;;;;3.87;3.50;;;4.50;96.70;;;;;;4891431;29;20812;-72
2021/04/04 13:28:38;;;;;;;7.50;3.27;;;4.50;96.90;;;;;;4892718;29;20303;-72